sensor_id;sensor_type;location;lat;lon;timestamp;pressure;altitude;pressure_sealevel;temperature;humidity
75424;BME280;64005;55.160;36.002;2023-05-10T00:00:57;100088.47;;;-0.19;58.21
75424;BME280;64005;55.160;36.002;2023-05-10T00:03:25;100090.72;;;-0.16;58.36
75424;BME280;64005;55.160;36.002;2023-05-10T00:05:52;100085.25;;;-0.16;58.10
75424;BME280;64005;55.160;36.002;2023-05-10T00:08:20;100092.63;;;-0.16;57.89
75424;BME280;64005;55.160;36.002;2023-05-10T00:10:47;100097.25;;;-0.17;58.36
75424;BME280;64005;55.160;36.002;2023-05-10T00:13:15;100097.03;;;-0.15;58.56
75424;BME280;64005;55.160;36.002;2023-05-10T00:15:44;100103.34;;;-0.15;58.69
75424;BME280;64005;55.160;36.002;2023-05-10T00:18:11;100107.38;;;-0.17;58.81
75424;BME280;64005;55.160;36.002;2023-05-10T00:20:39;100104.41;;;-0.16;58.96
75424;BME280;64005;55.160;36.002;2023-05-10T00:23:06;100113.91;;;-0.18;58.35
75424;BME280;64005;55.160;36.002;2023-05-10T00:25:34;100118.19;;;-0.11;58.13
75424;BME280;64005;55.160;36.002;2023-05-10T00:28:01;100113.53;;;-0.10;59.08
75424;BME280;64005;55.160;36.002;2023-05-10T00:30:28;100109.75;;;-0.09;58.95
75424;BME280;64005;55.160;36.002;2023-05-10T00:32:57;100112.81;;;-0.06;58.19
75424;BME280;64005;55.160;36.002;2023-05-10T00:35:25;100106.50;;;-0.06;58.21
75424;BME280;64005;55.160;36.002;2023-05-10T00:37:53;100101.03;;;-0.06;59.15
75424;BME280;64005;55.160;36.002;2023-05-10T00:40:20;100104.88;;;-0.07;58.44
75424;BME280;64005;55.160;36.002;2023-05-10T00:42:48;100099.88;;;-0.10;59.16
75424;BME280;64005;55.160;36.002;2023-05-10T00:45:15;100102.84;;;-0.12;59.39
75424;BME280;64005;55.160;36.002;2023-05-10T00:47:43;100092.13;;;-0.13;59.52
75424;BME280;64005;55.160;36.002;2023-05-10T00:50:12;100091.56;;;-0.15;58.86
75424;BME280;64005;55.160;36.002;2023-05-10T00:52:40;100100.59;;;-0.15;59.60
75424;BME280;64005;55.160;36.002;2023-05-10T00:55:09;100104.84;;;-0.19;59.19
75424;BME280;64005;55.160;36.002;2023-05-10T00:57:39;100103.91;;;-0.24;59.68
75424;BME280;64005;55.160;36.002;2023-05-10T01:00:07;100110.00;;;-0.34;59.59
75424;BME280;64005;55.160;36.002;2023-05-10T01:02:35;100115.59;;;-0.41;60.21
75424;BME280;64005;55.160;36.002;2023-05-10T01:05:03;100104.28;;;-0.44;60.15
75424;BME280;64005;55.160;36.002;2023-05-10T01:07:33;100107.84;;;-0.44;59.64
75424;BME280;64005;55.160;36.002;2023-05-10T01:10:01;100107.38;;;-0.41;59.51
75424;BME280;64005;55.160;36.002;2023-05-10T01:12:29;100100.59;;;-0.38;60.00
75424;BME280;64005;55.160;36.002;2023-05-10T01:14:57;100111.06;;;-0.35;59.84
75424;BME280;64005;55.160;36.002;2023-05-10T01:17:25;100107.50;;;-0.35;59.86
75424;BME280;64005;55.160;36.002;2023-05-10T01:19:53;100105.59;;;-0.35;59.55
75424;BME280;64005;55.160;36.002;2023-05-10T01:26:11;100094.06;;;-0.49;59.80
75424;BME280;64005;55.160;36.002;2023-05-10T01:29:01;100078.13;;;-0.63;60.13
75424;BME280;64005;55.160;36.002;2023-05-10T01:32:04;100089.28;;;-0.53;59.93
75424;BME280;64005;55.160;36.002;2023-05-10T01:34:41;100080.66;;;-0.62;60.18
75424;BME280;64005;55.160;36.002;2023-05-10T01:37:18;100086.56;;;-0.53;59.49
75424;BME280;64005;55.160;36.002;2023-05-10T01:40:01;100077.78;;;-0.55;59.85
75424;BME280;64005;55.160;36.002;2023-05-10T01:42:37;100090.84;;;-0.46;59.25
75424;BME280;64005;55.160;36.002;2023-05-10T01:45:11;100086.69;;;-0.60;60.38
75424;BME280;64005;55.160;36.002;2023-05-10T01:47:45;100098.59;;;-0.54;60.01
75424;BME280;64005;55.160;36.002;2023-05-10T01:50:16;100098.69;;;-0.49;60.26
75424;BME280;64005;55.160;36.002;2023-05-10T01:52:47;100100.13;;;-0.58;59.43
75424;BME280;64005;55.160;36.002;2023-05-10T01:55:20;100064.00;;;-0.72;59.57
75424;BME280;64005;55.160;36.002;2023-05-10T01:57:52;100083.13;;;-0.49;59.72
75424;BME280;64005;55.160;36.002;2023-05-10T02:00:24;100103.09;;;-0.36;60.41
75424;BME280;64005;55.160;36.002;2023-05-10T02:02:54;100018.03;;;-0.75;59.34
75424;BME280;64005;55.160;36.002;2023-05-10T02:05:23;100095.25;;;-0.33;60.48
75424;BME280;64005;55.160;36.002;2023-05-10T02:07:51;100088.59;;;-0.37;60.70
75424;BME280;64005;55.160;36.002;2023-05-10T02:10:20;100093.59;;;-0.34;60.75
75424;BME280;64005;55.160;36.002;2023-05-10T02:12:48;100090.38;;;-0.31;60.76
75424;BME280;64005;55.160;36.002;2023-05-10T02:15:21;100063.88;;;-0.42;59.95
75424;BME280;64005;55.160;36.002;2023-05-10T02:17:54;100079.69;;;-0.21;59.71
75424;BME280;64005;55.160;36.002;2023-05-10T02:20:23;100068.75;;;-0.21;60.10
75424;BME280;64005;55.160;36.002;2023-05-10T02:22:54;100091.28;;;0.10;59.32
75424;BME280;64005;55.160;36.002;2023-05-10T02:25:23;100088.03;;;0.24;60.29
75424;BME280;64005;55.160;36.002;2023-05-10T02:27:53;100092.38;;;0.37;59.65
75424;BME280;64005;55.160;36.002;2023-05-10T02:30:22;100098.66;;;0.49;59.62
75424;BME280;64005;55.160;36.002;2023-05-10T02:32:51;100099.94;;;0.58;59.79
75424;BME280;64005;55.160;36.002;2023-05-10T02:35:21;100090.22;;;0.67;58.82
75424;BME280;64005;55.160;36.002;2023-05-10T02:37:50;100090.44;;;0.77;59.24
75424;BME280;64005;55.160;36.002;2023-05-10T02:40:18;100098.34;;;0.91;59.48
75424;BME280;64005;55.160;36.002;2023-05-10T02:42:48;100101.25;;;1.01;58.80
75424;BME280;64005;55.160;36.002;2023-05-10T02:45:20;100102.03;;;1.13;59.64
75424;BME280;64005;55.160;36.002;2023-05-10T02:47:49;100100.78;;;1.20;59.42
75424;BME280;64005;55.160;36.002;2023-05-10T02:50:17;100107.75;;;1.28;58.84
75424;BME280;64005;55.160;36.002;2023-05-10T02:52:47;100093.41;;;1.38;58.90
75424;BME280;64005;55.160;36.002;2023-05-10T02:55:20;100100.53;;;1.55;59.38
75424;BME280;64005;55.160;36.002;2023-05-10T02:57:51;100104.34;;;1.71;58.93
75424;BME280;64005;55.160;36.002;2023-05-10T03:00:21;100112.47;;;1.83;58.37
75424;BME280;64005;55.160;36.002;2023-05-10T03:02:48;100106.88;;;1.94;58.78
75424;BME280;64005;55.160;36.002;2023-05-10T03:05:16;100105.13;;;2.05;58.47
75424;BME280;64005;55.160;36.002;2023-05-10T03:07:45;100035.53;;;1.73;58.72
75424;BME280;64005;55.160;36.002;2023-05-10T03:10:13;100117.19;;;2.26;58.31
75424;BME280;64005;55.160;36.002;2023-05-10T03:12:52;100092.81;;;2.29;58.67
75424;BME280;64005;55.160;36.002;2023-05-10T03:15:34;100097.06;;;2.42;58.18
75424;BME280;64005;55.160;36.002;2023-05-10T03:18:07;100100.31;;;2.61;58.74
75424;BME280;64005;55.160;36.002;2023-05-10T03:20:41;100102.94;;;2.72;58.30
75424;BME280;64005;55.160;36.002;2023-05-10T03:23:17;100102.19;;;2.82;58.39
75424;BME280;64005;55.160;36.002;2023-05-10T03:25:48;100090.78;;;2.95;57.91
75424;BME280;64005;55.160;36.002;2023-05-10T03:28:17;100103.66;;;3.16;58.37
75424;BME280;64005;55.160;36.002;2023-05-10T03:30:46;100098.28;;;3.32;57.97
75424;BME280;64005;55.160;36.002;2023-05-10T03:33:14;100100.84;;;3.43;58.10
75424;BME280;64005;55.160;36.002;2023-05-10T03:35:41;100107.28;;;3.59;58.12
75424;BME280;64005;55.160;36.002;2023-05-10T03:38:13;100105.22;;;3.71;57.73
75424;BME280;64005;55.160;36.002;2023-05-10T03:40:40;100111.38;;;3.88;58.05
75424;BME280;64005;55.160;36.002;2023-05-10T03:43:08;100097.97;;;4.02;57.93
75424;BME280;64005;55.160;36.002;2023-05-10T03:45:35;100106.84;;;4.19;57.96
75424;BME280;64005;55.160;36.002;2023-05-10T03:48:03;100099.25;;;4.36;57.78
75424;BME280;64005;55.160;36.002;2023-05-10T03:50:31;100098.19;;;4.53;57.78
75424;BME280;64005;55.160;36.002;2023-05-10T03:52:58;100099.91;;;4.64;57.37
75424;BME280;64005;55.160;36.002;2023-05-10T03:55:27;100102.16;;;4.82;57.41
75424;BME280;64005;55.160;36.002;2023-05-10T03:57:55;100099.47;;;5.02;57.52
75424;BME280;64005;55.160;36.002;2023-05-10T04:00:23;100100.03;;;5.19;57.18
75424;BME280;64005;55.160;36.002;2023-05-10T04:02:50;100103.38;;;5.37;57.60
75424;BME280;64005;55.160;36.002;2023-05-10T04:05:18;100091.22;;;5.48;57.50
75424;BME280;64005;55.160;36.002;2023-05-10T04:07:45;100098.13;;;5.71;57.08
75424;BME280;64005;55.160;36.002;2023-05-10T04:10:15;100101.97;;;5.95;56.85
75424;BME280;64005;55.160;36.002;2023-05-10T04:12:45;100094.47;;;6.16;56.81
75424;BME280;64005;55.160;36.002;2023-05-10T04:15:12;100095.50;;;6.35;57.00
75424;BME280;64005;55.160;36.002;2023-05-10T04:17:39;100094.84;;;6.58;57.20
75424;BME280;64005;55.160;36.002;2023-05-10T04:20:08;100104.44;;;6.81;56.15
75424;BME280;64005;55.160;36.002;2023-05-10T04:22:36;100100.44;;;7.02;55.78
75424;BME280;64005;55.160;36.002;2023-05-10T04:25:04;100087.00;;;7.25;55.54
75424;BME280;64005;55.160;36.002;2023-05-10T04:27:32;100091.75;;;7.53;55.83
75424;BME280;64005;55.160;36.002;2023-05-10T04:32:36;100010.41;;;7.49;55.59
75424;BME280;64005;55.160;36.002;2023-05-10T04:41:14;99968.78;;;8.07;54.89
75424;BME280;64005;55.160;36.002;2023-05-10T04:44:04;100089.09;;;9.14;54.19
75424;BME280;64005;55.160;36.002;2023-05-10T04:51:44;100046.78;;;9.55;53.67
75424;BME280;64005;55.160;36.002;2023-05-10T04:54:12;100093.75;;;10.03;53.43
75424;BME280;64005;55.160;36.002;2023-05-10T04:59:15;100098.66;;;10.52;52.86
75424;BME280;64005;55.160;36.002;2023-05-10T05:01:43;100097.09;;;10.73;52.66
75424;BME280;64005;55.160;36.002;2023-05-10T05:06:47;100101.06;;;11.22;51.65
75424;BME280;64005;55.160;36.002;2023-05-10T05:09:15;100091.19;;;11.38;51.41
75424;BME280;64005;55.160;36.002;2023-05-10T05:14:17;100093.81;;;11.79;50.93
75424;BME280;64005;55.160;36.002;2023-05-10T05:16:47;100009.78;;;11.41;50.37
75424;BME280;64005;55.160;36.002;2023-05-10T05:19:15;100098.28;;;12.11;49.59
75424;BME280;64005;55.160;36.002;2023-05-10T05:21:42;100084.59;;;12.23;49.51
75424;BME280;64005;55.160;36.002;2023-05-10T05:24:11;100099.22;;;12.37;48.65
75424;BME280;64005;55.160;36.002;2023-05-10T05:26:39;100091.28;;;12.53;48.02
75424;BME280;64005;55.160;36.002;2023-05-10T05:29:07;100090.84;;;12.77;47.35
75424;BME280;64005;55.160;36.002;2023-05-10T05:31:34;100089.75;;;12.95;47.18
75424;BME280;64005;55.160;36.002;2023-05-10T05:34:03;100086.97;;;13.03;45.70
75424;BME280;64005;55.160;36.002;2023-05-10T05:36:30;100087.66;;;13.09;44.55
75424;BME280;64005;55.160;36.002;2023-05-10T05:38:58;100088.00;;;13.25;43.76
75424;BME280;64005;55.160;36.002;2023-05-10T05:41:27;100080.78;;;13.32;43.03
75424;BME280;64005;55.160;36.002;2023-05-10T05:43:55;100086.38;;;13.41;42.59
75424;BME280;64005;55.160;36.002;2023-05-10T05:46:22;100093.97;;;13.49;41.52
75424;BME280;64005;55.160;36.002;2023-05-10T05:48:50;100087.88;;;13.47;40.77
75424;BME280;64005;55.160;36.002;2023-05-10T05:51:18;100088.84;;;13.51;40.09
75424;BME280;64005;55.160;36.002;2023-05-10T05:53:46;100087.88;;;13.56;39.29
75424;BME280;64005;55.160;36.002;2023-05-10T05:56:13;100077.16;;;13.66;38.79
75424;BME280;64005;55.160;36.002;2023-05-10T05:58:43;100085.84;;;13.90;38.76
75424;BME280;64005;55.160;36.002;2023-05-10T06:09:44;100012.91;;;14.04;36.31
75424;BME280;64005;55.160;36.002;2023-05-10T06:12:12;100076.69;;;14.75;35.51
75424;BME280;64005;55.160;36.002;2023-05-10T06:14:41;100050.59;;;14.83;34.95
75424;BME280;64005;55.160;36.002;2023-05-10T06:22:19;100082.50;;;15.20;33.06
75424;BME280;64005;55.160;36.002;2023-05-10T06:27:24;99988.34;;;14.98;32.97
75424;BME280;64005;55.160;36.002;2023-05-10T06:29:53;99957.75;;;14.93;32.38
75424;BME280;64005;55.160;36.002;2023-05-10T06:32:21;99993.28;;;15.22;31.91
75424;BME280;64005;55.160;36.002;2023-05-10T06:34:48;100062.69;;;15.66;31.17
75424;BME280;64005;55.160;36.002;2023-05-10T06:37:16;100072.53;;;15.72;31.06
75424;BME280;64005;55.160;36.002;2023-05-10T06:39:44;100064.66;;;15.99;30.75
75424;BME280;64005;55.160;36.002;2023-05-10T06:42:11;100075.47;;;16.09;30.29
75424;BME280;64005;55.160;36.002;2023-05-10T06:44:39;100070.69;;;16.21;30.30
75424;BME280;64005;55.160;36.002;2023-05-10T06:47:08;100040.22;;;15.99;29.86
75424;BME280;64005;55.160;36.002;2023-05-10T06:49:36;99948.56;;;15.25;29.85
75424;BME280;64005;55.160;36.002;2023-05-10T06:57:24;100025.16;;;16.16;29.77
75424;BME280;64005;55.160;36.002;2023-05-10T06:59:52;100009.38;;;16.23;29.48
75424;BME280;64005;55.160;36.002;2023-05-10T07:02:23;100061.88;;;16.80;29.36
75424;BME280;64005;55.160;36.002;2023-05-10T07:10:14;100057.41;;;16.55;28.02
75424;BME280;64005;55.160;36.002;2023-05-10T07:12:42;100033.03;;;16.47;27.72
75424;BME280;64005;55.160;36.002;2023-05-10T07:15:10;100046.78;;;16.60;27.37
75424;BME280;64005;55.160;36.002;2023-05-10T07:22:57;100002.50;;;16.33;26.21
75424;BME280;64005;55.160;36.002;2023-05-10T07:33:51;100048.19;;;17.31;25.78
75424;BME280;64005;55.160;36.002;2023-05-10T07:44:06;99948.66;;;16.43;25.01
75424;BME280;64005;55.160;36.002;2023-05-10T07:46:34;100028.13;;;16.92;24.89
75424;BME280;64005;55.160;36.002;2023-05-10T07:54:12;99910.94;;;16.81;24.77
75424;BME280;64005;55.160;36.002;2023-05-10T07:56:43;99913.75;;;16.81;24.60
75424;BME280;64005;55.160;36.002;2023-05-10T07:59:17;100019.75;;;17.60;24.67
75424;BME280;64005;55.160;36.002;2023-05-10T08:04:20;99982.56;;;17.67;24.96
75424;BME280;64005;55.160;36.002;2023-05-10T08:06:48;100014.84;;;17.85;24.35
75424;BME280;64005;55.160;36.002;2023-05-10T08:09:16;99999.53;;;17.70;24.52
75424;BME280;64005;55.160;36.002;2023-05-10T08:11:48;99998.81;;;17.45;24.53
75424;BME280;64005;55.160;36.002;2023-05-10T08:14:43;100008.41;;;17.44;24.85
75424;BME280;64005;55.160;36.002;2023-05-10T08:17:10;99883.03;;;16.48;24.57
75424;BME280;64005;55.160;36.002;2023-05-10T08:22:13;99996.66;;;16.87;24.04
75424;BME280;64005;55.160;36.002;2023-05-10T08:33:30;99985.16;;;17.32;24.19
75424;BME280;64005;55.160;36.002;2023-05-10T08:35:58;99973.84;;;17.16;23.82
75424;BME280;64005;55.160;36.002;2023-05-10T08:38:46;99971.00;;;16.88;24.03
75424;BME280;64005;55.160;36.002;2023-05-10T08:41:14;99971.38;;;16.62;23.61
75424;BME280;64005;55.160;36.002;2023-05-10T08:46:18;99922.72;;;16.34;23.53
75424;BME280;64005;55.160;36.002;2023-05-10T08:49:12;99961.56;;;16.68;23.73
75424;BME280;64005;55.160;36.002;2023-05-10T08:51:40;99963.16;;;16.69;24.02
75424;BME280;64005;55.160;36.002;2023-05-10T09:01:55;99916.97;;;17.51;24.03
75424;BME280;64005;55.160;36.002;2023-05-10T09:04:25;99886.16;;;17.26;24.18
75424;BME280;64005;55.160;36.002;2023-05-10T09:06:53;99948.81;;;17.82;23.97
75424;BME280;64005;55.160;36.002;2023-05-10T09:09:34;99940.38;;;17.67;23.67
75424;BME280;64005;55.160;36.002;2023-05-10T09:12:02;99925.38;;;17.78;23.89
75424;BME280;64005;55.160;36.002;2023-05-10T09:14:42;99932.66;;;17.95;23.76
75424;BME280;64005;55.160;36.002;2023-05-10T09:17:25;99930.66;;;17.96;23.38
75424;BME280;64005;55.160;36.002;2023-05-10T09:20:07;99926.47;;;17.90;23.42
75424;BME280;64005;55.160;36.002;2023-05-10T09:22:35;99917.03;;;17.98;23.57
75424;BME280;64005;55.160;36.002;2023-05-10T09:25:05;99923.09;;;18.47;23.37
75424;BME280;64005;55.160;36.002;2023-05-10T09:35:33;99863.47;;;17.78;22.79
75424;BME280;64005;55.160;36.002;2023-05-10T09:59:12;99900.31;;;18.71;22.58
75424;BME280;64005;55.160;36.002;2023-05-10T10:01:41;99883.53;;;18.43;22.12
75424;BME280;64005;55.160;36.002;2023-05-10T10:04:17;99861.22;;;18.35;22.49
75424;BME280;64005;55.160;36.002;2023-05-10T10:14:32;99882.88;;;18.50;22.14
75424;BME280;64005;55.160;36.002;2023-05-10T10:43:50;99854.91;;;18.95;22.30
75424;BME280;64005;55.160;36.002;2023-05-10T11:11:26;99843.19;;;19.13;21.87
75424;BME280;64005;55.160;36.002;2023-05-10T11:14:02;99838.50;;;19.20;21.70
75424;BME280;64005;55.160;36.002;2023-05-10T11:16:43;99837.97;;;19.34;22.02
75424;BME280;64005;55.160;36.002;2023-05-10T13:03:43;99651.41;;;17.04;24.05
75424;BME280;64005;55.160;36.002;2023-05-10T13:13:56;99753.06;;;17.69;24.35
75424;BME280;64005;55.160;36.002;2023-05-10T13:16:23;99727.31;;;17.52;24.49
75424;BME280;64005;55.160;36.002;2023-05-10T13:18:52;99749.38;;;17.65;24.35
75424;BME280;64005;55.160;36.002;2023-05-10T13:21:20;99750.69;;;17.56;24.39
75424;BME280;64005;55.160;36.002;2023-05-10T13:23:47;99739.75;;;17.51;24.52
75424;BME280;64005;55.160;36.002;2023-05-10T13:26:15;99747.72;;;17.48;24.68
75424;BME280;64005;55.160;36.002;2023-05-10T13:28:43;99742.00;;;17.45;24.59
75424;BME280;64005;55.160;36.002;2023-05-10T13:31:11;99744.75;;;17.41;24.80
75424;BME280;64005;55.160;36.002;2023-05-10T13:33:39;99741.84;;;17.38;24.64
75424;BME280;64005;55.160;36.002;2023-05-10T13:36:08;99730.41;;;17.31;24.81
75424;BME280;64005;55.160;36.002;2023-05-10T13:38:35;99738.31;;;17.41;24.81
75424;BME280;64005;55.160;36.002;2023-05-10T13:43:38;99624.84;;;16.71;25.00
75424;BME280;64005;55.160;36.002;2023-05-10T13:46:11;99740.94;;;17.34;24.81
75424;BME280;64005;55.160;36.002;2023-05-10T13:48:38;99741.13;;;17.41;24.86
75424;BME280;64005;55.160;36.002;2023-05-10T13:51:07;99733.22;;;17.46;24.94
75424;BME280;64005;55.160;36.002;2023-05-10T14:17:43;99720.41;;;17.49;25.50
75424;BME280;64005;55.160;36.002;2023-05-10T14:25:48;99660.91;;;17.31;25.13
75424;BME280;64005;55.160;36.002;2023-05-10T15:22:33;99666.91;;;16.67;27.65
75424;BME280;64005;55.160;36.002;2023-05-10T15:39:18;99681.84;;;16.27;28.59
75424;BME280;64005;55.160;36.002;2023-05-10T15:55:10;99670.22;;;15.73;32.36
75424;BME280;64005;55.160;36.002;2023-05-10T15:57:38;99581.16;;;15.06;32.84
75424;BME280;64005;55.160;36.002;2023-05-10T16:00:09;99678.88;;;15.56;32.10
75424;BME280;64005;55.160;36.002;2023-05-10T16:02:37;99671.63;;;15.43;31.58
75424;BME280;64005;55.160;36.002;2023-05-10T16:05:05;99669.53;;;15.40;32.36
75424;BME280;64005;55.160;36.002;2023-05-10T16:07:52;99667.91;;;15.27;32.41
75424;BME280;64005;55.160;36.002;2023-05-10T16:10:21;99671.16;;;15.17;33.14
75424;BME280;64005;55.160;36.002;2023-05-10T16:12:48;99668.59;;;15.11;33.09
75424;BME280;64005;55.160;36.002;2023-05-10T16:15:16;99665.81;;;15.11;33.03
75424;BME280;64005;55.160;36.002;2023-05-10T16:17:44;99666.03;;;15.06;33.41
75424;BME280;64005;55.160;36.002;2023-05-10T16:20:11;99669.53;;;15.03;33.80
75424;BME280;64005;55.160;36.002;2023-05-10T16:22:47;99669.53;;;14.91;34.50
75424;BME280;64005;55.160;36.002;2023-05-10T16:25:15;99677.44;;;14.77;34.96
75424;BME280;64005;55.160;36.002;2023-05-10T16:27:44;99663.91;;;14.67;35.28
75424;BME280;64005;55.160;36.002;2023-05-10T16:30:12;99662.16;;;14.62;35.53
75424;BME280;64005;55.160;36.002;2023-05-10T16:32:56;99672.06;;;14.60;35.92
75424;BME280;64005;55.160;36.002;2023-05-10T16:35:24;99670.97;;;14.52;36.31
75424;BME280;64005;55.160;36.002;2023-05-10T16:37:52;99674.41;;;14.37;37.57
75424;BME280;64005;55.160;36.002;2023-05-10T16:40:21;99674.81;;;14.15;37.41
75424;BME280;64005;55.160;36.002;2023-05-10T16:42:51;99669.06;;;13.90;37.25
75424;BME280;64005;55.160;36.002;2023-05-10T16:45:19;99669.91;;;13.91;37.82
75424;BME280;64005;55.160;36.002;2023-05-10T16:47:46;99661.84;;;13.89;38.11
75424;BME280;64005;55.160;36.002;2023-05-10T16:50:14;99664.47;;;13.74;38.90
75424;BME280;64005;55.160;36.002;2023-05-10T16:52:41;99668.75;;;13.71;38.59
75424;BME280;64005;55.160;36.002;2023-05-10T16:55:09;99676.84;;;13.64;39.09
75424;BME280;64005;55.160;36.002;2023-05-10T16:57:36;99669.38;;;13.56;39.31
75424;BME280;64005;55.160;36.002;2023-05-10T17:00:07;99665.59;;;13.52;39.36
75424;BME280;64005;55.160;36.002;2023-05-10T17:02:37;99672.53;;;13.46;39.62
75424;BME280;64005;55.160;36.002;2023-05-10T17:05:04;99668.31;;;13.40;39.75
75424;BME280;64005;55.160;36.002;2023-05-10T17:07:32;99668.16;;;13.36;39.76
75424;BME280;64005;55.160;36.002;2023-05-10T17:10:00;99658.41;;;13.22;40.33
75424;BME280;64005;55.160;36.002;2023-05-10T17:12:30;99670.25;;;13.19;40.12
75424;BME280;64005;55.160;36.002;2023-05-10T17:14:58;99669.09;;;13.11;41.01
75424;BME280;64005;55.160;36.002;2023-05-10T17:17:27;99674.41;;;13.04;40.70
75424;BME280;64005;55.160;36.002;2023-05-10T17:19:54;99680.66;;;13.01;40.30
75424;BME280;64005;55.160;36.002;2023-05-10T17:22:22;99688.06;;;12.97;40.69
75424;BME280;64005;55.160;36.002;2023-05-10T17:24:49;99679.25;;;12.86;40.81
75424;BME280;64005;55.160;36.002;2023-05-10T17:27:17;99680.91;;;12.79;41.25
75424;BME280;64005;55.160;36.002;2023-05-10T17:29:44;99679.47;;;12.72;41.88
75424;BME280;64005;55.160;36.002;2023-05-10T17:32:12;99681.31;;;12.68;42.06
75424;BME280;64005;55.160;36.002;2023-05-10T17:34:40;99676.22;;;12.62;42.52
75424;BME280;64005;55.160;36.002;2023-05-10T17:37:09;99687.09;;;12.55;42.77
75424;BME280;64005;55.160;36.002;2023-05-10T17:39:36;99684.81;;;12.48;42.71
75424;BME280;64005;55.160;36.002;2023-05-10T17:42:04;99686.13;;;12.42;43.08
75424;BME280;64005;55.160;36.002;2023-05-10T17:44:32;99691.88;;;12.37;43.63
75424;BME280;64005;55.160;36.002;2023-05-10T17:46:59;99690.75;;;12.29;43.65
75424;BME280;64005;55.160;36.002;2023-05-10T17:49:27;99696.03;;;12.22;44.08
75424;BME280;64005;55.160;36.002;2023-05-10T17:51:56;99698.31;;;12.12;43.76
75424;BME280;64005;55.160;36.002;2023-05-10T17:54:24;99683.06;;;12.01;44.05
75424;BME280;64005;55.160;36.002;2023-05-10T17:56:51;99689.97;;;12.03;44.22
75424;BME280;64005;55.160;36.002;2023-05-10T17:59:19;99692.25;;;12.01;44.30
75424;BME280;64005;55.160;36.002;2023-05-10T18:01:47;99688.97;;;11.99;44.19
75424;BME280;64005;55.160;36.002;2023-05-10T18:04:14;99693.56;;;11.95;44.27
75424;BME280;64005;55.160;36.002;2023-05-10T18:06:42;99698.00;;;11.87;44.47
75424;BME280;64005;55.160;36.002;2023-05-10T18:09:11;99696.53;;;11.81;44.67
75424;BME280;64005;55.160;36.002;2023-05-10T18:11:38;99702.28;;;11.76;44.51
75424;BME280;64005;55.160;36.002;2023-05-10T18:14:06;99678.13;;;11.63;45.05
75424;BME280;64005;55.160;36.002;2023-05-10T18:16:33;99695.97;;;11.71;44.57
75424;BME280;64005;55.160;36.002;2023-05-10T18:19:01;99698.09;;;11.65;44.56
75424;BME280;64005;55.160;36.002;2023-05-10T18:21:28;99704.34;;;11.62;44.47
75424;BME280;64005;55.160;36.002;2023-05-10T18:23:56;99703.34;;;11.58;44.94
75424;BME280;64005;55.160;36.002;2023-05-10T18:26:25;99699.56;;;11.54;44.70
75424;BME280;64005;55.160;36.002;2023-05-10T18:28:52;99697.28;;;11.47;45.18
75424;BME280;64005;55.160;36.002;2023-05-10T18:31:20;99702.66;;;11.44;45.37
75424;BME280;64005;55.160;36.002;2023-05-10T18:33:47;99704.47;;;11.40;45.42
75424;BME280;64005;55.160;36.002;2023-05-10T18:36:15;99702.16;;;11.33;45.74
75424;BME280;64005;55.160;36.002;2023-05-10T18:38:42;99706.41;;;11.31;46.31
75424;BME280;64005;55.160;36.002;2023-05-10T18:41:10;99699.84;;;11.27;45.74
75424;BME280;64005;55.160;36.002;2023-05-10T18:43:41;99711.97;;;11.22;46.51
75424;BME280;64005;55.160;36.002;2023-05-10T18:46:08;99708.50;;;11.17;46.54
75424;BME280;64005;55.160;36.002;2023-05-10T18:48:36;99711.94;;;11.13;46.56
75424;BME280;64005;55.160;36.002;2023-05-10T18:51:03;99712.56;;;11.10;46.93
75424;BME280;64005;55.160;36.002;2023-05-10T18:53:31;99711.78;;;11.10;46.94
75424;BME280;64005;55.160;36.002;2023-05-10T18:56:21;99706.69;;;11.12;46.28
75424;BME280;64005;55.160;36.002;2023-05-10T18:58:50;99712.25;;;11.12;46.98
75424;BME280;64005;55.160;36.002;2023-05-10T19:01:18;99708.16;;;11.09;47.08
75424;BME280;64005;55.160;36.002;2023-05-10T19:03:46;99709.63;;;11.07;47.06
75424;BME280;64005;55.160;36.002;2023-05-10T19:06:13;99717.28;;;11.01;47.64
75424;BME280;64005;55.160;36.002;2023-05-10T19:08:41;99708.28;;;10.96;47.66
75424;BME280;64005;55.160;36.002;2023-05-10T19:11:08;99715.13;;;10.90;48.01
75424;BME280;64005;55.160;36.002;2023-05-10T19:13:36;99703.28;;;10.84;48.14
75424;BME280;64005;55.160;36.002;2023-05-10T19:16:08;99702.31;;;10.80;48.21
75424;BME280;64005;55.160;36.002;2023-05-10T19:18:36;99704.72;;;10.73;48.33
75424;BME280;64005;55.160;36.002;2023-05-10T19:21:04;99701.25;;;10.67;48.49
75424;BME280;64005;55.160;36.002;2023-05-10T19:23:32;99707.78;;;10.63;48.87
75424;BME280;64005;55.160;36.002;2023-05-10T19:26:00;99710.69;;;10.58;49.02
75424;BME280;64005;55.160;36.002;2023-05-10T19:28:27;99704.66;;;10.56;48.71
75424;BME280;64005;55.160;36.002;2023-05-10T19:30:55;99702.50;;;10.53;49.14
75424;BME280;64005;55.160;36.002;2023-05-10T19:33:24;99700.16;;;10.46;48.79
75424;BME280;64005;55.160;36.002;2023-05-10T19:35:53;99705.56;;;10.43;48.95
75424;BME280;64005;55.160;36.002;2023-05-10T19:38:20;99708.72;;;10.27;49.53
75424;BME280;64005;55.160;36.002;2023-05-10T19:40:48;99705.88;;;10.19;49.55
75424;BME280;64005;55.160;36.002;2023-05-10T19:43:16;99705.16;;;10.13;49.97
75424;BME280;64005;55.160;36.002;2023-05-10T19:45:43;99718.22;;;10.13;49.57
75424;BME280;64005;55.160;36.002;2023-05-10T19:48:11;99711.34;;;10.10;49.99
75424;BME280;64005;55.160;36.002;2023-05-10T19:50:40;99706.94;;;10.09;49.91
75424;BME280;64005;55.160;36.002;2023-05-10T19:53:07;99701.47;;;10.04;50.14
75424;BME280;64005;55.160;36.002;2023-05-10T19:55:34;99714.56;;;10.04;50.03
75424;BME280;64005;55.160;36.002;2023-05-10T19:58:02;99702.94;;;10.02;49.96